sensor_id;sensor_type;location;lat;lon;timestamp;P1;durP1;ratioP1;P2;durP2;ratioP2
75930;SDS011;64609;47.052;15.462;2023-01-29T00:01:28;54.28;;;29.80;;
75930;SDS011;64609;47.052;15.462;2023-01-29T00:03:56;49.30;;;28.73;;
75930;SDS011;64609;47.052;15.462;2023-01-29T00:06:21;53.85;;;30.85;;
75930;SDS011;64609;47.052;15.462;2023-01-29T00:08:47;51.47;;;29.55;;
75930;SDS011;64609;47.052;15.462;2023-01-29T00:11:13;55.22;;;30.48;;
75930;SDS011;64609;47.052;15.462;2023-01-29T00:13:41;53.60;;;30.02;;
75930;SDS011;64609;47.052;15.462;2023-01-29T00:16:07;52.35;;;30.00;;
75930;SDS011;64609;47.052;15.462;2023-01-29T00:18:36;54.42;;;30.17;;
75930;SDS011;64609;47.052;15.462;2023-01-29T00:21:03;55.83;;;31.38;;
75930;SDS011;64609;47.052;15.462;2023-01-29T00:23:32;53.67;;;30.90;;
75930;SDS011;64609;47.052;15.462;2023-01-29T00:26:00;51.67;;;29.90;;
75930;SDS011;64609;47.052;15.462;2023-01-29T00:28:26;51.92;;;30.30;;
75930;SDS011;64609;47.052;15.462;2023-01-29T00:30:52;50.80;;;28.52;;
75930;SDS011;64609;47.052;15.462;2023-01-29T00:33:17;45.88;;;27.92;;
75930;SDS011;64609;47.052;15.462;2023-01-29T00:35:43;52.85;;;29.60;;
75930;SDS011;64609;47.052;15.462;2023-01-29T00:38:08;48.10;;;27.85;;
75930;SDS011;64609;47.052;15.462;2023-01-29T00:40:36;50.08;;;28.48;;
75930;SDS011;64609;47.052;15.462;2023-01-29T00:43:22;48.28;;;29.13;;
75930;SDS011;64609;47.052;15.462;2023-01-29T00:46:06;49.25;;;28.40;;
75930;SDS011;64609;47.052;15.462;2023-01-29T00:48:32;48.63;;;28.33;;
75930;SDS011;64609;47.052;15.462;2023-01-29T00:50:58;48.95;;;28.42;;
75930;SDS011;64609;47.052;15.462;2023-01-29T00:53:24;49.08;;;28.05;;
75930;SDS011;64609;47.052;15.462;2023-01-29T00:55:52;57.67;;;30.40;;
75930;SDS011;64609;47.052;15.462;2023-01-29T00:58:17;48.55;;;30.33;;
75930;SDS011;64609;47.052;15.462;2023-01-29T01:00:49;49.55;;;28.52;;
75930;SDS011;64609;47.052;15.462;2023-01-29T01:03:15;45.53;;;27.90;;
75930;SDS011;64609;47.052;15.462;2023-01-29T01:05:41;47.67;;;28.85;;
75930;SDS011;64609;47.052;15.462;2023-01-29T01:08:07;53.28;;;28.90;;
75930;SDS011;64609;47.052;15.462;2023-01-29T01:10:59;51.50;;;30.02;;
75930;SDS011;64609;47.052;15.462;2023-01-29T01:13:26;52.45;;;29.77;;
75930;SDS011;64609;47.052;15.462;2023-01-29T01:15:52;52.53;;;30.25;;
75930;SDS011;64609;47.052;15.462;2023-01-29T01:18:18;52.10;;;29.98;;
75930;SDS011;64609;47.052;15.462;2023-01-29T01:20:46;57.72;;;30.95;;
75930;SDS011;64609;47.052;15.462;2023-01-29T01:23:15;57.20;;;30.83;;
75930;SDS011;64609;47.052;15.462;2023-01-29T01:25:42;49.58;;;28.70;;
75930;SDS011;64609;47.052;15.462;2023-01-29T01:28:08;57.13;;;31.45;;
75930;SDS011;64609;47.052;15.462;2023-01-29T01:30:34;53.03;;;30.17;;
75930;SDS011;64609;47.052;15.462;2023-01-29T01:33:00;51.50;;;30.75;;
75930;SDS011;64609;47.052;15.462;2023-01-29T01:35:26;50.60;;;30.30;;
75930;SDS011;64609;47.052;15.462;2023-01-29T01:37:52;51.75;;;30.23;;
75930;SDS011;64609;47.052;15.462;2023-01-29T01:40:21;49.58;;;29.63;;
75930;SDS011;64609;47.052;15.462;2023-01-29T01:42:51;52.13;;;29.67;;
75930;SDS011;64609;47.052;15.462;2023-01-29T01:47:53;54.65;;;30.00;;
75930;SDS011;64609;47.052;15.462;2023-01-29T01:53:14;57.85;;;30.67;;
75930;SDS011;64609;47.052;15.462;2023-01-29T01:55:51;50.72;;;28.92;;
75930;SDS011;64609;47.052;15.462;2023-01-29T01:58:25;45.78;;;27.92;;
75930;SDS011;64609;47.052;15.462;2023-01-29T02:00:54;48.58;;;28.17;;
75930;SDS011;64609;47.052;15.462;2023-01-29T02:03:23;52.25;;;29.63;;
75930;SDS011;64609;47.052;15.462;2023-01-29T02:06:11;49.97;;;28.98;;
75930;SDS011;64609;47.052;15.462;2023-01-29T02:08:57;46.05;;;27.52;;
75930;SDS011;64609;47.052;15.462;2023-01-29T02:11:55;48.47;;;27.50;;
75930;SDS011;64609;47.052;15.462;2023-01-29T02:14:23;46.70;;;27.05;;
75930;SDS011;64609;47.052;15.462;2023-01-29T02:16:49;43.35;;;26.73;;
75930;SDS011;64609;47.052;15.462;2023-01-29T02:19:17;43.22;;;25.38;;
75930;SDS011;64609;47.052;15.462;2023-01-29T02:21:55;47.33;;;27.45;;
75930;SDS011;64609;47.052;15.462;2023-01-29T02:28:04;48.42;;;26.52;;
75930;SDS011;64609;47.052;15.462;2023-01-29T02:33:04;47.38;;;27.23;;
75930;SDS011;64609;47.052;15.462;2023-01-29T02:35:49;43.47;;;26.77;;
75930;SDS011;64609;47.052;15.462;2023-01-29T02:40:55;52.47;;;27.60;;
75930;SDS011;64609;47.052;15.462;2023-01-29T02:46:08;42.83;;;25.98;;
75930;SDS011;64609;47.052;15.462;2023-01-29T02:48:43;44.70;;;25.35;;
75930;SDS011;64609;47.052;15.462;2023-01-29T02:51:20;43.83;;;25.92;;
75930;SDS011;64609;47.052;15.462;2023-01-29T02:53:59;42.25;;;26.17;;
75930;SDS011;64609;47.052;15.462;2023-01-29T02:56:54;41.85;;;26.08;;
75930;SDS011;64609;47.052;15.462;2023-01-29T02:59:32;43.05;;;26.55;;
75930;SDS011;64609;47.052;15.462;2023-01-29T03:02:10;43.80;;;26.58;;
75930;SDS011;64609;47.052;15.462;2023-01-29T03:04:45;43.88;;;25.80;;
75930;SDS011;64609;47.052;15.462;2023-01-29T03:07:18;41.00;;;25.02;;
75930;SDS011;64609;47.052;15.462;2023-01-29T03:10:11;39.95;;;24.70;;
75930;SDS011;64609;47.052;15.462;2023-01-29T03:13:14;44.25;;;25.40;;
75930;SDS011;64609;47.052;15.462;2023-01-29T03:15:48;40.53;;;25.55;;
75930;SDS011;64609;47.052;15.462;2023-01-29T03:18:25;45.03;;;25.38;;
75930;SDS011;64609;47.052;15.462;2023-01-29T03:21:03;46.07;;;25.17;;
75930;SDS011;64609;47.052;15.462;2023-01-29T03:23:54;38.67;;;24.42;;
75930;SDS011;64609;47.052;15.462;2023-01-29T03:26:40;37.83;;;23.55;;
75930;SDS011;64609;47.052;15.462;2023-01-29T03:29:26;44.22;;;25.13;;
75930;SDS011;64609;47.052;15.462;2023-01-29T03:32:13;43.67;;;25.85;;
75930;SDS011;64609;47.052;15.462;2023-01-29T03:34:44;41.13;;;25.88;;
75930;SDS011;64609;47.052;15.462;2023-01-29T03:39:53;44.05;;;25.92;;
75930;SDS011;64609;47.052;15.462;2023-01-29T03:42:22;39.72;;;24.83;;
75930;SDS011;64609;47.052;15.462;2023-01-29T03:44:59;41.63;;;26.23;;
75930;SDS011;64609;47.052;15.462;2023-01-29T03:49:58;41.85;;;24.65;;
75930;SDS011;64609;47.052;15.462;2023-01-29T03:58:37;41.95;;;25.75;;
75930;SDS011;64609;47.052;15.462;2023-01-29T04:01:08;43.80;;;25.55;;
75930;SDS011;64609;47.052;15.462;2023-01-29T04:03:51;44.95;;;26.35;;
75930;SDS011;64609;47.052;15.462;2023-01-29T04:06:28;43.60;;;25.40;;
75930;SDS011;64609;47.052;15.462;2023-01-29T04:09:11;45.08;;;24.88;;
75930;SDS011;64609;47.052;15.462;2023-01-29T04:11:54;41.30;;;24.50;;
75930;SDS011;64609;47.052;15.462;2023-01-29T04:14:41;42.28;;;24.52;;
75930;SDS011;64609;47.052;15.462;2023-01-29T04:17:17;41.08;;;24.75;;
75930;SDS011;64609;47.052;15.462;2023-01-29T04:19:49;45.97;;;24.47;;
75930;SDS011;64609;47.052;15.462;2023-01-29T04:22:19;45.55;;;26.55;;
75930;SDS011;64609;47.052;15.462;2023-01-29T04:24:49;45.60;;;24.42;;
75930;SDS011;64609;47.052;15.462;2023-01-29T04:41:21;39.17;;;23.88;;
75930;SDS011;64609;47.052;15.462;2023-01-29T04:46:30;47.65;;;25.67;;
75930;SDS011;64609;47.052;15.462;2023-01-29T04:57:50;44.35;;;24.88;;
75930;SDS011;64609;47.052;15.462;2023-01-29T05:00:04;37.08;;;23.13;;
75930;SDS011;64609;47.052;15.462;2023-01-29T05:02:51;41.63;;;23.17;;
75930;SDS011;64609;47.052;15.462;2023-01-29T05:05:18;40.25;;;24.50;;
75930;SDS011;64609;47.052;15.462;2023-01-29T05:07:44;40.75;;;24.63;;
75930;SDS011;64609;47.052;15.462;2023-01-29T05:10:12;41.28;;;23.92;;
75930;SDS011;64609;47.052;15.462;2023-01-29T05:12:42;39.42;;;23.23;;
75930;SDS011;64609;47.052;15.462;2023-01-29T05:15:12;42.08;;;24.70;;
75930;SDS011;64609;47.052;15.462;2023-01-29T05:17:43;44.20;;;24.23;;
75930;SDS011;64609;47.052;15.462;2023-01-29T05:20:09;40.25;;;23.17;;
75930;SDS011;64609;47.052;15.462;2023-01-29T05:22:39;41.03;;;23.70;;
75930;SDS011;64609;47.052;15.462;2023-01-29T05:27:46;39.28;;;23.33;;
75930;SDS011;64609;47.052;15.462;2023-01-29T05:30:38;40.40;;;23.45;;
75930;SDS011;64609;47.052;15.462;2023-01-29T05:33:09;40.20;;;24.45;;
75930;SDS011;64609;47.052;15.462;2023-01-29T05:35:40;39.70;;;23.13;;
75930;SDS011;64609;47.052;15.462;2023-01-29T05:38:06;35.88;;;22.70;;
75930;SDS011;64609;47.052;15.462;2023-01-29T05:40:32;37.83;;;23.45;;
75930;SDS011;64609;47.052;15.462;2023-01-29T05:42:58;40.72;;;24.65;;
75930;SDS011;64609;47.052;15.462;2023-01-29T05:45:24;36.53;;;23.40;;
75930;SDS011;64609;47.052;15.462;2023-01-29T05:47:50;42.20;;;25.15;;
75930;SDS011;64609;47.052;15.462;2023-01-29T05:50:23;36.22;;;22.15;;
75930;SDS011;64609;47.052;15.462;2023-01-29T05:52:54;37.85;;;24.25;;
75930;SDS011;64609;47.052;15.462;2023-01-29T05:55:23;38.72;;;22.73;;
75930;SDS011;64609;47.052;15.462;2023-01-29T05:57:49;36.78;;;22.85;;
75930;SDS011;64609;47.052;15.462;2023-01-29T06:00:14;35.97;;;23.05;;
75930;SDS011;64609;47.052;15.462;2023-01-29T06:02:40;38.20;;;23.77;;
75930;SDS011;64609;47.052;15.462;2023-01-29T06:05:06;38.58;;;21.80;;
75930;SDS011;64609;47.052;15.462;2023-01-29T06:07:32;39.67;;;23.80;;
75930;SDS011;64609;47.052;15.462;2023-01-29T06:09:58;38.15;;;23.02;;
75930;SDS011;64609;47.052;15.462;2023-01-29T06:12:23;38.58;;;23.55;;
75930;SDS011;64609;47.052;15.462;2023-01-29T06:14:51;40.97;;;24.88;;
75930;SDS011;64609;47.052;15.462;2023-01-29T06:17:16;38.95;;;23.70;;
75930;SDS011;64609;47.052;15.462;2023-01-29T06:19:42;39.30;;;23.30;;
75930;SDS011;64609;47.052;15.462;2023-01-29T06:22:07;39.20;;;23.65;;
75930;SDS011;64609;47.052;15.462;2023-01-29T06:24:33;37.90;;;23.73;;
75930;SDS011;64609;47.052;15.462;2023-01-29T06:26:59;40.88;;;23.00;;
75930;SDS011;64609;47.052;15.462;2023-01-29T06:29:24;39.35;;;23.20;;
75930;SDS011;64609;47.052;15.462;2023-01-29T06:31:52;34.80;;;22.80;;
75930;SDS011;64609;47.052;15.462;2023-01-29T06:34:18;36.15;;;22.95;;
75930;SDS011;64609;47.052;15.462;2023-01-29T06:36:43;35.55;;;23.33;;
75930;SDS011;64609;47.052;15.462;2023-01-29T19:20:34;32.25;;;18.15;;
75930;SDS011;64609;47.052;15.462;2023-01-29T19:22:59;27.58;;;15.73;;
75930;SDS011;64609;47.052;15.462;2023-01-29T19:25:25;30.27;;;17.10;;
75930;SDS011;64609;47.052;15.462;2023-01-29T19:27:50;25.27;;;15.32;;
75930;SDS011;64609;47.052;15.462;2023-01-29T19:30:16;28.67;;;20.00;;
75930;SDS011;64609;47.052;15.462;2023-01-29T19:32:42;28.00;;;17.75;;
75930;SDS011;64609;47.052;15.462;2023-01-29T19:35:07;27.83;;;17.67;;
75930;SDS011;64609;47.052;15.462;2023-01-29T19:37:33;24.67;;;16.80;;
75930;SDS011;64609;47.052;15.462;2023-01-29T19:39:59;23.17;;;16.17;;
75930;SDS011;64609;47.052;15.462;2023-01-29T19:42:24;28.65;;;16.25;;
75930;SDS011;64609;47.052;15.462;2023-01-29T19:44:50;25.00;;;16.08;;
75930;SDS011;64609;47.052;15.462;2023-01-29T19:47:17;22.80;;;16.13;;
75930;SDS011;64609;47.052;15.462;2023-01-29T19:49:43;23.10;;;15.90;;
75930;SDS011;64609;47.052;15.462;2023-01-29T19:52:08;22.45;;;15.38;;
75930;SDS011;64609;47.052;15.462;2023-01-29T19:54:39;22.27;;;15.50;;
75930;SDS011;64609;47.052;15.462;2023-01-29T19:57:06;21.30;;;15.38;;
75930;SDS011;64609;47.052;15.462;2023-01-29T19:59:33;22.27;;;15.13;;
75930;SDS011;64609;47.052;15.462;2023-01-29T20:01:58;24.05;;;15.68;;
75930;SDS011;64609;47.052;15.462;2023-01-29T20:04:24;20.95;;;14.38;;
75930;SDS011;64609;47.052;15.462;2023-01-29T20:06:50;23.85;;;14.85;;
75930;SDS011;64609;47.052;15.462;2023-01-29T20:09:16;20.90;;;14.77;;
75930;SDS011;64609;47.052;15.462;2023-01-29T20:11:42;22.40;;;15.80;;
75930;SDS011;64609;47.052;15.462;2023-01-29T20:14:07;21.95;;;14.30;;
75930;SDS011;64609;47.052;15.462;2023-01-29T20:16:35;19.17;;;13.60;;
75930;SDS011;64609;47.052;15.462;2023-01-29T20:19:01;22.23;;;15.60;;
75930;SDS011;64609;47.052;15.462;2023-01-29T20:21:26;21.92;;;15.57;;
75930;SDS011;64609;47.052;15.462;2023-01-29T20:23:52;20.67;;;14.25;;
75930;SDS011;64609;47.052;15.462;2023-01-29T20:26:18;21.77;;;14.57;;
75930;SDS011;64609;47.052;15.462;2023-01-29T20:28:45;20.58;;;14.45;;
75930;SDS011;64609;47.052;15.462;2023-01-29T20:31:12;22.65;;;16.20;;
75930;SDS011;64609;47.052;15.462;2023-01-29T20:33:38;20.70;;;15.15;;
75930;SDS011;64609;47.052;15.462;2023-01-29T20:36:04;24.35;;;15.18;;
75930;SDS011;64609;47.052;15.462;2023-01-29T20:38:31;22.20;;;15.63;;
75930;SDS011;64609;47.052;15.462;2023-01-29T20:41:17;21.58;;;14.93;;
75930;SDS011;64609;47.052;15.462;2023-01-29T20:43:43;21.02;;;15.30;;
75930;SDS011;64609;47.052;15.462;2023-01-29T20:46:09;23.88;;;16.85;;
75930;SDS011;64609;47.052;15.462;2023-01-29T20:48:35;24.45;;;15.20;;
75930;SDS011;64609;47.052;15.462;2023-01-29T20:51:02;22.80;;;16.77;;
75930;SDS011;64609;47.052;15.462;2023-01-29T20:53:34;24.15;;;16.45;;
75930;SDS011;64609;47.052;15.462;2023-01-29T20:56:00;22.58;;;15.40;;
75930;SDS011;64609;47.052;15.462;2023-01-29T20:58:27;22.38;;;16.15;;
75930;SDS011;64609;47.052;15.462;2023-01-29T21:00:52;21.20;;;14.88;;
75930;SDS011;64609;47.052;15.462;2023-01-29T21:03:18;18.58;;;14.45;;
75930;SDS011;64609;47.052;15.462;2023-01-29T21:05:43;20.88;;;14.50;;
75930;SDS011;64609;47.052;15.462;2023-01-29T21:08:10;22.30;;;15.18;;
75930;SDS011;64609;47.052;15.462;2023-01-29T21:10:36;22.65;;;14.93;;
75930;SDS011;64609;47.052;15.462;2023-01-29T21:13:02;26.00;;;14.48;;
75930;SDS011;64609;47.052;15.462;2023-01-29T21:15:28;21.17;;;14.00;;
75930;SDS011;64609;47.052;15.462;2023-01-29T21:17:54;21.05;;;15.10;;
75930;SDS011;64609;47.052;15.462;2023-01-29T21:20:19;23.42;;;15.65;;
75930;SDS011;64609;47.052;15.462;2023-01-29T21:22:45;23.05;;;15.18;;
75930;SDS011;64609;47.052;15.462;2023-01-29T21:25:13;19.65;;;14.27;;
75930;SDS011;64609;47.052;15.462;2023-01-29T21:27:39;20.90;;;14.38;;
75930;SDS011;64609;47.052;15.462;2023-01-29T21:30:05;22.33;;;15.52;;
75930;SDS011;64609;47.052;15.462;2023-01-29T21:32:31;24.00;;;15.38;;
75930;SDS011;64609;47.052;15.462;2023-01-29T21:34:57;26.45;;;16.63;;
75930;SDS011;64609;47.052;15.462;2023-01-29T21:37:22;20.73;;;14.52;;
75930;SDS011;64609;47.052;15.462;2023-01-29T21:39:48;22.25;;;15.82;;
75930;SDS011;64609;47.052;15.462;2023-01-29T21:42:14;26.00;;;16.45;;
75930;SDS011;64609;47.052;15.462;2023-01-29T21:44:58;22.45;;;15.40;;
75930;SDS011;64609;47.052;15.462;2023-01-29T21:47:23;24.80;;;16.25;;
75930;SDS011;64609;47.052;15.462;2023-01-29T21:49:49;23.40;;;15.98;;
75930;SDS011;64609;47.052;15.462;2023-01-29T21:52:14;24.88;;;15.95;;
75930;SDS011;64609;47.052;15.462;2023-01-29T21:54:40;24.90;;;15.98;;
75930;SDS011;64609;47.052;15.462;2023-01-29T21:57:12;24.25;;;16.60;;
75930;SDS011;64609;47.052;15.462;2023-01-29T21:59:39;22.52;;;16.38;;
75930;SDS011;64609;47.052;15.462;2023-01-29T22:02:08;27.00;;;16.80;;
75930;SDS011;64609;47.052;15.462;2023-01-29T22:04:38;29.58;;;17.00;;
75930;SDS011;64609;47.052;15.462;2023-01-29T22:07:04;25.95;;;17.48;;
75930;SDS011;64609;47.052;15.462;2023-01-29T22:09:30;24.13;;;16.70;;
75930;SDS011;64609;47.052;15.462;2023-01-29T22:11:56;24.92;;;17.27;;
75930;SDS011;64609;47.052;15.462;2023-01-29T22:14:22;29.50;;;18.00;;
75930;SDS011;64609;47.052;15.462;2023-01-29T22:16:48;24.38;;;16.20;;
75930;SDS011;64609;47.052;15.462;2023-01-29T22:19:13;26.08;;;17.23;;
75930;SDS011;64609;47.052;15.462;2023-01-29T22:21:39;25.77;;;17.67;;
75930;SDS011;64609;47.052;15.462;2023-01-29T22:24:05;23.73;;;16.30;;
75930;SDS011;64609;47.052;15.462;2023-01-29T22:26:31;23.23;;;15.38;;
75930;SDS011;64609;47.052;15.462;2023-01-29T22:28:57;24.02;;;17.02;;
75930;SDS011;64609;47.052;15.462;2023-01-29T22:31:23;25.10;;;17.08;;
75930;SDS011;64609;47.052;15.462;2023-01-29T22:33:48;27.73;;;17.20;;
75930;SDS011;64609;47.052;15.462;2023-01-29T22:36:14;28.60;;;18.67;;
75930;SDS011;64609;47.052;15.462;2023-01-29T22:38:43;25.40;;;17.02;;
75930;SDS011;64609;47.052;15.462;2023-01-29T22:41:09;27.95;;;17.45;;
75930;SDS011;64609;47.052;15.462;2023-01-29T22:43:35;26.33;;;16.50;;
75930;SDS011;64609;47.052;15.462;2023-01-29T22:46:01;25.60;;;17.27;;
75930;SDS011;64609;47.052;15.462;2023-01-29T22:48:30;25.73;;;16.80;;
75930;SDS011;64609;47.052;15.462;2023-01-29T22:50:57;28.10;;;17.80;;
75930;SDS011;64609;47.052;15.462;2023-01-29T22:53:42;25.77;;;17.15;;
75930;SDS011;64609;47.052;15.462;2023-01-29T22:56:12;25.70;;;18.15;;
75930;SDS011;64609;47.052;15.462;2023-01-29T22:58:37;28.67;;;18.05;;
75930;SDS011;64609;47.052;15.462;2023-01-29T23:01:05;28.88;;;18.65;;
75930;SDS011;64609;47.052;15.462;2023-01-29T23:03:31;29.40;;;18.65;;
75930;SDS011;64609;47.052;15.462;2023-01-29T23:05:57;27.10;;;17.55;;
75930;SDS011;64609;47.052;15.462;2023-01-29T23:08:22;26.33;;;16.73;;
75930;SDS011;64609;47.052;15.462;2023-01-29T23:10:48;29.83;;;18.90;;
75930;SDS011;64609;47.052;15.462;2023-01-29T23:13:13;27.80;;;18.65;;
75930;SDS011;64609;47.052;15.462;2023-01-29T23:15:39;27.08;;;17.20;;
75930;SDS011;64609;47.052;15.462;2023-01-29T23:18:05;28.15;;;17.35;;
75930;SDS011;64609;47.052;15.462;2023-01-29T23:20:31;29.83;;;19.63;;
75930;SDS011;64609;47.052;15.462;2023-01-29T23:22:57;30.35;;;19.33;;
75930;SDS011;64609;47.052;15.462;2023-01-29T23:25:22;29.40;;;18.20;;
75930;SDS011;64609;47.052;15.462;2023-01-29T23:28:11;31.17;;;20.23;;
75930;SDS011;64609;47.052;15.462;2023-01-29T23:30:36;28.60;;;17.95;;
75930;SDS011;64609;47.052;15.462;2023-01-29T23:33:02;30.65;;;19.70;;
75930;SDS011;64609;47.052;15.462;2023-01-29T23:35:28;28.20;;;17.85;;
75930;SDS011;64609;47.052;15.462;2023-01-29T23:37:53;31.55;;;18.88;;
75930;SDS011;64609;47.052;15.462;2023-01-29T23:40:19;30.63;;;18.95;;
75930;SDS011;64609;47.052;15.462;2023-01-29T23:42:46;31.73;;;19.17;;
75930;SDS011;64609;47.052;15.462;2023-01-29T23:45:12;32.10;;;18.83;;
75930;SDS011;64609;47.052;15.462;2023-01-29T23:47:38;28.38;;;18.90;;
75930;SDS011;64609;47.052;15.462;2023-01-29T23:50:04;29.80;;;19.40;;
75930;SDS011;64609;47.052;15.462;2023-01-29T23:52:29;28.67;;;19.05;;
75930;SDS011;64609;47.052;15.462;2023-01-29T23:54:55;31.00;;;20.00;;
75930;SDS011;64609;47.052;15.462;2023-01-29T23:57:21;27.42;;;18.52;;
75930;SDS011;64609;47.052;15.462;2023-01-29T23:59:46;29.20;;;19.33;;
